^^
B2 Weather Station Historical Data
Daily Summary for February 14, 2018 Units:  Both    English   Metric
Daily Weekly Monthly Yearly Custom
  High: Low: Average:
Temperature: 44.0 °F /  6.7 °C 24.7 °F /  -4.1 °C 35.7 °F /  2.1 °C
Dew Point: 42.9 °F /  6.1 °C 22.6 °F /  -5.2 °C 33.8 °F /  1 °C
Humidity: 96% 87% 93%
Wind Speed: 10.4mph /  16.7km/h - 3.1mph /  5km/h
Wind Gust: 10.4mph /  16.7km/h - -
Wind- - SSW
Pressure: 30.31 in /  1026.3 hPa 29.87 in /  1011.4 hPa -
Precipitation: 0.00 in /  0 mm    
Historical Graphs
 
 
Tabular Data for February 14, 2018
Time Temperature Dew Point Pressure Wind Wind Speed Wind Gust Humidity Rainfall Rate (Hourly) solar
00:04 30.3 °F /  -0.9 °C 27.7 °F /  -2.4 °C 30.31in /  1026.3hPa SSW 3.5mph /  5.6km/h 3.5mph /  5.6km/h 90% 0.00in /  0mm 0.0 W/m2
00:09 30.3 °F /  -0.9 °C 27.7 °F /  -2.4 °C 30.30in /  1026hPa South 4.0mph /  6.4km/h 4.0mph /  6.4km/h 90% 0.00in /  0mm 0.0 W/m2
00:14 30.3 °F /  -0.9 °C 28.0 °F /  -2.2 °C 30.30in /  1026hPa South 4.6mph /  7.4km/h 4.6mph /  7.4km/h 91% 0.00in /  0mm 0.0 W/m2
00:19 30.3 °F /  -0.9 °C 28.0 °F /  -2.2 °C 30.30in /  1026hPa South 4.6mph /  7.4km/h 4.6mph /  7.4km/h 91% 0.00in /  0mm 0.0 W/m2
00:24 30.3 °F /  -0.9 °C 28.0 °F /  -2.2 °C 30.30in /  1026hPa SW 5.8mph /  9.3km/h 5.8mph /  9.3km/h 91% 0.00in /  0mm 0.0 W/m2
00:29 30.3 °F /  -0.9 °C 28.0 °F /  -2.2 °C 30.30in /  1026hPa SSW 4.6mph /  7.4km/h 4.6mph /  7.4km/h 91% 0.00in /  0mm 0.0 W/m2
00:34 30.3 °F /  -0.9 °C 28.0 °F /  -2.2 °C 30.30in /  1026hPa South 3.5mph /  5.6km/h 3.5mph /  5.6km/h 91% 0.00in /  0mm 0.0 W/m2
00:39 30.5 °F /  -0.8 °C 28.2 °F /  -2.1 °C 30.30in /  1026hPa SSW 3.5mph /  5.6km/h 3.5mph /  5.6km/h 91% 0.00in /  0mm 0.0 W/m2
00:44 30.5 °F /  -0.8 °C 28.2 °F /  -2.1 °C 30.30in /  1026hPa SSW 3.5mph /  5.6km/h 3.5mph /  5.6km/h 91% 0.00in /  0mm 0.0 W/m2
00:49 30.5 °F /  -0.8 °C 28.2 °F /  -2.1 °C 30.30in /  1026hPa SW 3.5mph /  5.6km/h 3.5mph /  5.6km/h 91% 0.00in /  0mm 0.0 W/m2
00:54 30.5 °F /  -0.8 °C 28.2 °F /  -2.1 °C 30.29in /  1025.6hPa SSW 2.3mph /  3.7km/h 2.3mph /  3.7km/h 91% 0.00in /  0mm 0.0 W/m2
00:59 30.4 °F /  -0.9 °C 28.1 °F /  -2.2 °C 30.29in /  1025.6hPa South 7.0mph /  11.3km/h 7.0mph /  11.3km/h 91% 0.00in /  0mm 0.0 W/m2
01:04 30.4 °F /  -0.9 °C 28.1 °F /  -2.2 °C 30.29in /  1025.6hPa SSW 4.6mph /  7.4km/h 4.6mph /  7.4km/h 91% 0.00in /  0mm 0.0 W/m2
01:09 30.3 °F /  -0.9 °C 28.0 °F /  -2.2 °C 30.29in /  1025.6hPa SSW 4.6mph /  7.4km/h 4.6mph /  7.4km/h 91% 0.00in /  0mm 0.0 W/m2
01:14 30.3 °F /  -0.9 °C 28.0 °F /  -2.2 °C 30.29in /  1025.6hPa SSW 3.5mph /  5.6km/h 3.5mph /  5.6km/h 91% 0.00in /  0mm 0.0 W/m2
01:19 30.2 °F /  -1 °C 27.9 °F /  -2.3 °C 30.28in /  1025.3hPa South 5.8mph /  9.3km/h 5.8mph /  9.3km/h 91% 0.00in /  0mm 0.0 W/m2
01:24 30.1 °F /  -1.1 °C 27.8 °F /  -2.3 °C 30.29in /  1025.6hPa SW 4.6mph /  7.4km/h 4.6mph /  7.4km/h 91% 0.00in /  0mm 0.0 W/m2
01:29 30.1 °F /  -1.1 °C 27.8 °F /  -2.3 °C 30.28in /  1025.3hPa SSW 5.0mph /  8km/h 5.0mph /  8km/h 91% 0.00in /  0mm 0.0 W/m2
01:34 30.1 °F /  -1.1 °C 27.8 °F /  -2.3 °C 30.28in /  1025.3hPa SSW 5.8mph /  9.3km/h 5.8mph /  9.3km/h 91% 0.00in /  0mm 0.0 W/m2
01:39 30.2 °F /  -1 °C 28.2 °F /  -2.1 °C 30.28in /  1025.3hPa SSW 3.5mph /  5.6km/h 3.5mph /  5.6km/h 92% 0.00in /  0mm 0.0 W/m2
01:44 30.3 °F /  -0.9 °C 28.3 °F /  -2.1 °C 30.28in /  1025.3hPa SW 3.5mph /  5.6km/h 3.5mph /  5.6km/h 92% 0.00in /  0mm 0.0 W/m2
01:49 30.3 °F /  -0.9 °C 28.0 °F /  -2.2 °C 30.28in /  1025.3hPa SSW 6.9mph /  11.1km/h 6.9mph /  11.1km/h 91% 0.00in /  0mm 0.0 W/m2
01:54 30.2 °F /  -1 °C 27.9 °F /  -2.3 °C 30.28in /  1025.3hPa SSW 4.6mph /  7.4km/h 4.6mph /  7.4km/h 91% 0.00in /  0mm 0.0 W/m2
01:59 30.3 °F /  -0.9 °C 28.0 °F /  -2.2 °C 30.28in /  1025.3hPa SW 3.5mph /  5.6km/h 3.5mph /  5.6km/h 91% 0.00in /  0mm 0.0 W/m2
02:04 30.3 °F /  -0.9 °C 28.3 °F /  -2.1 °C 30.28in /  1025.3hPa SSW 4.6mph /  7.4km/h 4.6mph /  7.4km/h 92% 0.00in /  0mm 0.0 W/m2
02:09 30.4 °F /  -0.9 °C 28.4 °F /  -2 °C 30.28in /  1025.3hPa SSW 5.8mph /  9.3km/h 5.8mph /  9.3km/h 92% 0.00in /  0mm 0.0 W/m2
02:14 30.4 °F /  -0.9 °C 28.4 °F /  -2 °C 30.27in /  1024.9hPa SSW 3.5mph /  5.6km/h 3.5mph /  5.6km/h 92% 0.00in /  0mm 0.0 W/m2
02:19 30.4 °F /  -0.9 °C 28.4 °F /  -2 °C 30.27in /  1024.9hPa SW 4.0mph /  6.4km/h 4.0mph /  6.4km/h 92% 0.00in /  0mm 0.0 W/m2
02:24 30.5 °F /  -0.8 °C 28.5 °F /  -1.9 °C 30.27in /  1024.9hPa SSW 3.5mph /  5.6km/h 3.5mph /  5.6km/h 92% 0.00in /  0mm 0.0 W/m2
02:29 30.4 °F /  -0.9 °C 28.1 °F /  -2.2 °C 30.27in /  1024.9hPa South 4.0mph /  6.4km/h 4.0mph /  6.4km/h 91% 0.00in /  0mm 0.0 W/m2
02:34 30.4 °F /  -0.9 °C 28.1 °F /  -2.2 °C 30.27in /  1024.9hPa SW 4.6mph /  7.4km/h 4.6mph /  7.4km/h 91% 0.00in /  0mm 0.0 W/m2
02:39 30.3 °F /  -0.9 °C 28.0 °F /  -2.2 °C 30.27in /  1024.9hPa SSW 3.5mph /  5.6km/h 3.5mph /  5.6km/h 91% 0.00in /  0mm 0.0 W/m2
02:44 30.3 °F /  -0.9 °C 28.0 °F /  -2.2 °C 30.27in /  1024.9hPa SSW 3.5mph /  5.6km/h 3.5mph /  5.6km/h 91% 0.00in /  0mm 0.0 W/m2
02:49 30.2 °F /  -1 °C 28.2 °F /  -2.1 °C 30.26in /  1024.6hPa SSW 3.5mph /  5.6km/h 3.5mph /  5.6km/h 92% 0.00in /  0mm 0.0 W/m2
02:54 30.1 °F /  -1.1 °C 28.1 °F /  -2.2 °C 30.26in /  1024.6hPa SSW 4.6mph /  7.4km/h 4.6mph /  7.4km/h 92% 0.00in /  0mm 0.0 W/m2
02:59 30.1 °F /  -1.1 °C 28.1 °F /  -2.2 °C 30.26in /  1024.6hPa SSW 2.3mph /  3.7km/h 2.3mph /  3.7km/h 92% 0.00in /  0mm 0.0 W/m2
03:04 30.0 °F /  -1.1 °C 28.0 °F /  -2.2 °C 30.26in /  1024.6hPa SSW 3.5mph /  5.6km/h 3.5mph /  5.6km/h 92% 0.00in /  0mm 0.0 W/m2
03:10 29.8 °F /  -1.2 °C 27.5 °F /  -2.5 °C 30.25in /  1024.3hPa SSW 1.2mph /  1.9km/h 1.2mph /  1.9km/h 91% 0.00in /  0mm 0.0 W/m2
03:15 29.6 °F /  -1.3 °C 27.3 °F /  -2.6 °C 30.25in /  1024.3hPa Calm     91% 0.00in /  0mm 0.0 W/m2
03:20 29.4 °F /  -1.4 °C 27.1 °F /  -2.7 °C 30.25in /  1024.3hPa Calm     91% 0.00in /  0mm 0.0 W/m2
03:25 29.2 °F /  -1.6 °C 26.9 °F /  -2.8 °C 30.25in /  1024.3hPa Calm     91% 0.00in /  0mm 0.0 W/m2
03:30 29.0 °F /  -1.7 °C 26.7 °F /  -2.9 °C 30.25in /  1024.3hPa Calm     91% 0.00in /  0mm 0.0 W/m2
03:35 28.9 °F /  -1.7 °C 26.6 °F /  -3 °C 30.24in /  1023.9hPa Calm     91% 0.00in /  0mm 0.0 W/m2
03:40 28.8 °F /  -1.8 °C 26.5 °F /  -3.1 °C 30.24in /  1023.9hPa Calm     91% 0.00in /  0mm 0.0 W/m2
03:45 28.7 °F /  -1.8 °C 26.7 °F /  -2.9 °C 30.24in /  1023.9hPa Calm     92% 0.00in /  0mm 0.0 W/m2
03:50 28.7 °F /  -1.8 °C 26.7 °F /  -2.9 °C 30.24in /  1023.9hPa Calm     92% 0.00in /  0mm 0.0 W/m2
03:55 28.5 °F /  -1.9 °C 26.2 °F /  -3.2 °C 30.23in /  1023.6hPa Calm     91% 0.00in /  0mm 0.0 W/m2
04:00 28.4 °F /  -2 °C 26.4 °F /  -3.1 °C 30.23in /  1023.6hPa Calm     92% 0.00in /  0mm 0.0 W/m2
04:05 28.3 °F /  -2.1 °C 26.3 °F /  -3.2 °C 30.23in /  1023.6hPa Calm     92% 0.00in /  0mm 0.0 W/m2
04:10 28.3 °F /  -2.1 °C 26.3 °F /  -3.2 °C 30.23in /  1023.6hPa Calm     92% 0.00in /  0mm 0.0 W/m2
04:15 28.3 °F /  -2.1 °C 26.3 °F /  -3.2 °C 30.23in /  1023.6hPa Calm     92% 0.00in /  0mm 0.0 W/m2
04:20 28.3 °F /  -2.1 °C 26.3 °F /  -3.2 °C 30.23in /  1023.6hPa Calm     92% 0.00in /  0mm 0.0 W/m2
04:25 28.1 °F /  -2.2 °C 26.1 °F /  -3.3 °C 30.23in /  1023.6hPa Calm     92% 0.00in /  0mm 0.0 W/m2
04:30 27.7 °F /  -2.4 °C 25.4 °F /  -3.7 °C 30.23in /  1023.6hPa Calm     91% 0.00in /  0mm 0.0 W/m2
04:35 26.9 °F /  -2.8 °C 24.6 °F /  -4.1 °C 30.23in /  1023.6hPa Calm     91% 0.00in /  0mm 0.0 W/m2
04:40 26.0 °F /  -3.3 °C 23.7 °F /  -4.6 °C 30.22in /  1023.2hPa Calm     91% 0.00in /  0mm 0.0 W/m2
04:45 25.6 °F /  -3.6 °C 23.3 °F /  -4.8 °C 30.23in /  1023.6hPa Calm     91% 0.00in /  0mm 0.0 W/m2
04:50 24.9 °F /  -3.9 °C 22.6 °F /  -5.2 °C 30.23in /  1023.6hPa South 3.5mph /  5.6km/h 3.5mph /  5.6km/h 91% 0.00in /  0mm 0.0 W/m2
04:55 24.7 °F /  -4.1 °C 22.7 °F /  -5.2 °C 30.23in /  1023.6hPa Calm     92% 0.00in /  0mm 0.0 W/m2
05:00 25.6 °F /  -3.6 °C 23.9 °F /  -4.5 °C 30.23in /  1023.6hPa Calm     93% 0.00in /  0mm 0.0 W/m2
05:05 26.2 °F /  -3.2 °C 24.7 °F /  -4.1 °C 30.22in /  1023.2hPa SSW 1.2mph /  1.9km/h 1.2mph /  1.9km/h 94% 0.00in /  0mm 0.0 W/m2
05:10 26.5 °F /  -3.1 °C 24.8 °F /  -4 °C 30.22in /  1023.2hPa SSW 1.2mph /  1.9km/h 1.2mph /  1.9km/h 93% 0.00in /  0mm 0.0 W/m2
05:15 26.8 °F /  -2.9 °C 25.3 °F /  -3.7 °C 30.22in /  1023.2hPa Calm     94% 0.00in /  0mm 0.0 W/m2
05:20 27.0 °F /  -2.8 °C 25.5 °F /  -3.6 °C 30.22in /  1023.2hPa Calm     94% 0.00in /  0mm 0.0 W/m2
05:25 27.1 °F /  -2.7 °C 25.6 °F /  -3.6 °C 30.22in /  1023.2hPa SSW 2.3mph /  3.7km/h 2.3mph /  3.7km/h 94% 0.00in /  0mm 0.0 W/m2
05:30 27.2 °F /  -2.7 °C 25.7 °F /  -3.5 °C 30.21in /  1022.9hPa Calm     94% 0.00in /  0mm 0.0 W/m2
05:35 27.0 °F /  -2.8 °C 25.2 °F /  -3.8 °C 30.21in /  1022.9hPa SSW 3.5mph /  5.6km/h 3.5mph /  5.6km/h 93% 0.00in /  0mm 0.0 W/m2
05:40 26.7 °F /  -2.9 °C 24.9 °F /  -3.9 °C 30.21in /  1022.9hPa SSW 1.2mph /  1.9km/h 1.2mph /  1.9km/h 93% 0.00in /  0mm 0.0 W/m2
05:45 27.0 °F /  -2.8 °C 25.5 °F /  -3.6 °C 30.21in /  1022.9hPa South 2.3mph /  3.7km/h 2.3mph /  3.7km/h 94% 0.00in /  0mm 0.0 W/m2
05:50 26.8 °F /  -2.9 °C 25.0 °F /  -3.9 °C 30.22in /  1023.2hPa South 1.2mph /  1.9km/h   93% 0.00in /  0mm 0.0 W/m2
05:55 27.1 °F /  -2.7 °C 25.6 °F /  -3.6 °C 30.21in /  1022.9hPa South 3.5mph /  5.6km/h 3.5mph /  5.6km/h 94% 0.00in /  0mm 0.0 W/m2
06:00 27.4 °F /  -2.6 °C 25.9 °F /  -3.4 °C 30.21in /  1022.9hPa South 3.5mph /  5.6km/h 3.5mph /  5.6km/h 94% 0.00in /  0mm 0.0 W/m2
06:05 27.4 °F /  -2.6 °C 25.9 °F /  -3.4 °C 30.21in /  1022.9hPa South 5.8mph /  9.3km/h 5.8mph /  9.3km/h 94% 0.00in /  0mm 0.0 W/m2
06:10 27.6 °F /  -2.4 °C 26.1 °F /  -3.3 °C 30.20in /  1022.6hPa SSW 4.6mph /  7.4km/h 4.6mph /  7.4km/h 94% 0.00in /  0mm 0.0 W/m2
06:15 27.8 °F /  -2.3 °C 26.3 °F /  -3.2 °C 30.20in /  1022.6hPa SSW 4.6mph /  7.4km/h 4.6mph /  7.4km/h 94% 0.00in /  0mm 0.0 W/m2
06:20 27.8 °F /  -2.3 °C 26.3 °F /  -3.2 °C 30.21in /  1022.9hPa SSW 3.5mph /  5.6km/h 3.5mph /  5.6km/h 94% 0.00in /  0mm 0.0 W/m2
06:25 27.8 °F /  -2.3 °C 26.3 °F /  -3.2 °C 30.21in /  1022.9hPa SSW 3.5mph /  5.6km/h 3.5mph /  5.6km/h 94% 0.00in /  0mm 0.0 W/m2
06:30 27.8 °F /  -2.3 °C 26.3 °F /  -3.2 °C 30.21in /  1022.9hPa SSW 1.2mph /  1.9km/h 1.2mph /  1.9km/h 94% 0.00in /  0mm 0.0 W/m2
06:35 27.8 °F /  -2.3 °C 26.3 °F /  -3.2 °C 30.21in /  1022.9hPa SW 4.6mph /  7.4km/h 4.6mph /  7.4km/h 94% 0.00in /  0mm 0.0 W/m2
06:36 27.8 °F /  -2.3 °C 26.3 °F /  -3.2 °C 30.21in /  1022.9hPa SSW 4.6mph /  7.4km/h 4.6mph /  7.4km/h 94% 0.00in /  0mm 0.0 W/m2
06:41 27.7 °F /  -2.4 °C 25.9 °F /  -3.4 °C 30.21in /  1022.9hPa SSW 3.5mph /  5.6km/h   93% 0.00in /  0mm 0.0 W/m2
06:46 27.6 °F /  -2.4 °C 25.8 °F /  -3.4 °C 30.21in /  1022.9hPa SSW 3.5mph /  5.6km/h 3.5mph /  5.6km/h 93% 0.00in /  0mm 0.0 W/m2
06:51 27.6 °F /  -2.4 °C 25.8 °F /  -3.4 °C 30.21in /  1022.9hPa SSW 4.6mph /  7.4km/h 4.6mph /  7.4km/h 93% 0.00in /  0mm 7.0 W/m2
06:56 27.7 °F /  -2.4 °C 25.9 °F /  -3.4 °C 30.21in /  1022.9hPa SSW 2.3mph /  3.7km/h 2.3mph /  3.7km/h 93% 0.00in /  0mm 11.0 W/m2
07:01 27.6 °F /  -2.4 °C 25.8 °F /  -3.4 °C 30.21in /  1022.9hPa South 3.5mph /  5.6km/h 3.5mph /  5.6km/h 93% 0.00in /  0mm 16.0 W/m2
07:06 27.6 °F /  -2.4 °C 25.8 °F /  -3.4 °C 30.20in /  1022.6hPa SSW 2.3mph /  3.7km/h 2.3mph /  3.7km/h 93% 0.00in /  0mm 21.0 W/m2
07:11 27.7 °F /  -2.4 °C 25.9 °F /  -3.4 °C 30.20in /  1022.6hPa SSW 3.5mph /  5.6km/h 3.5mph /  5.6km/h 93% 0.00in /  0mm 23.0 W/m2
07:16 27.8 °F /  -2.3 °C 26.0 °F /  -3.3 °C 30.21in /  1022.9hPa SSW 3.5mph /  5.6km/h 3.5mph /  5.6km/h 93% 0.00in /  0mm 30.0 W/m2
07:21 27.9 °F /  -2.3 °C 26.4 °F /  -3.1 °C 30.20in /  1022.6hPa South 3.5mph /  5.6km/h 3.5mph /  5.6km/h 94% 0.00in /  0mm 37.0 W/m2
08:17 30.7 °F /  -0.7 °C 28.7 °F /  -1.8 °C 30.19in /  1022.2hPa SSW 3.5mph /  5.6km/h 3.5mph /  5.6km/h 92% 0.00in /  0mm 243.0 W/m2
08:22 31.2 °F /  -0.4 °C 28.9 °F /  -1.7 °C 30.18in /  1021.9hPa SSW 4.6mph /  7.4km/h 4.6mph /  7.4km/h 91% 0.00in /  0mm 229.0 W/m2
08:27 31.5 °F /  -0.3 °C 29.2 °F /  -1.6 °C 30.18in /  1021.9hPa SSW 3.5mph /  5.6km/h 3.5mph /  5.6km/h 91% 0.00in /  0mm 265.0 W/m2
08:32 31.9 °F /  -0.1 °C 29.6 °F /  -1.3 °C 30.18in /  1021.9hPa South 1.2mph /  1.9km/h 1.2mph /  1.9km/h 91% 0.00in /  0mm 257.0 W/m2
08:37 32.3 °F /  0.2 °C 29.7 °F /  -1.3 °C 30.18in /  1021.9hPa South 3.5mph /  5.6km/h 3.5mph /  5.6km/h 90% 0.00in /  0mm 272.0 W/m2
08:42 32.7 °F /  0.4 °C 30.1 °F /  -1.1 °C 30.18in /  1021.9hPa South 5.8mph /  9.3km/h 5.8mph /  9.3km/h 90% 0.00in /  0mm 294.0 W/m2
08:47 33.2 °F /  0.7 °C 30.6 °F /  -0.8 °C 30.18in /  1021.9hPa South 3.5mph /  5.6km/h 3.5mph /  5.6km/h 90% 0.00in /  0mm 272.0 W/m2
08:52 33.6 °F /  0.9 °C 30.7 °F /  -0.7 °C 30.18in /  1021.9hPa SSW 4.6mph /  7.4km/h 4.6mph /  7.4km/h 89% 0.00in /  0mm 327.0 W/m2
08:57 34.1 °F /  1.2 °C 31.2 °F /  -0.4 °C 30.18in /  1021.9hPa SSW 4.6mph /  7.4km/h 4.6mph /  7.4km/h 89% 0.00in /  0mm 318.0 W/m2
09:02 34.4 °F /  1.3 °C 31.5 °F /  -0.3 °C 30.18in /  1021.9hPa SW 3.5mph /  5.6km/h 3.5mph /  5.6km/h 89% 0.00in /  0mm 346.0 W/m2
09:07 34.8 °F /  1.6 °C 31.9 °F /  -0.1 °C 30.18in /  1021.9hPa SSW 5.8mph /  9.3km/h 5.8mph /  9.3km/h 89% 0.00in /  0mm 315.0 W/m2
09:12 35.1 °F /  1.7 °C 32.2 °F /  0.1 °C 30.17in /  1021.6hPa South 5.8mph /  9.3km/h 5.8mph /  9.3km/h 89% 0.00in /  0mm 353.0 W/m2
09:17 35.6 °F /  2 °C 32.7 °F /  0.4 °C 30.17in /  1021.6hPa SW 3.5mph /  5.6km/h 3.5mph /  5.6km/h 89% 0.00in /  0mm 320.0 W/m2
09:22 35.9 °F /  2.2 °C 33.0 °F /  0.6 °C 30.17in /  1021.6hPa SW 5.8mph /  9.3km/h 5.8mph /  9.3km/h 89% 0.00in /  0mm 396.0 W/m2
09:27 36.3 °F /  2.4 °C 33.4 °F /  0.8 °C 30.17in /  1021.6hPa SSW 3.5mph /  5.6km/h 3.5mph /  5.6km/h 89% 0.00in /  0mm 387.0 W/m2
09:32 36.7 °F /  2.6 °C 33.8 °F /  1 °C 30.17in /  1021.6hPa SSW 4.6mph /  7.4km/h 4.6mph /  7.4km/h 89% 0.00in /  0mm 411.0 W/m2
09:37 37.1 °F /  2.8 °C 34.2 °F /  1.2 °C 30.17in /  1021.6hPa South 4.6mph /  7.4km/h 4.6mph /  7.4km/h 89% 0.00in /  0mm 441.0 W/m2
09:42 37.7 °F /  3.2 °C 34.5 °F /  1.4 °C 30.17in /  1021.6hPa SW 4.6mph /  7.4km/h 4.6mph /  7.4km/h 88% 0.00in /  0mm 390.0 W/m2
09:47 38.1 °F /  3.4 °C 34.9 °F /  1.6 °C 30.17in /  1021.6hPa SSW 9.2mph /  14.8km/h 9.2mph /  14.8km/h 88% 0.00in /  0mm 476.0 W/m2
09:52 38.3 °F /  3.5 °C 34.8 °F /  1.6 °C 30.17in /  1021.6hPa SSW 2.3mph /  3.7km/h 2.3mph /  3.7km/h 87% 0.00in /  0mm 482.0 W/m2
09:57 38.5 °F /  3.6 °C 35.0 °F /  1.7 °C 30.16in /  1021.2hPa SSW 6.9mph /  11.1km/h 6.9mph /  11.1km/h 87% 0.00in /  0mm 494.0 W/m2
10:02 38.6 °F /  3.7 °C 35.1 °F /  1.7 °C 30.16in /  1021.2hPa SSW 3.5mph /  5.6km/h 3.5mph /  5.6km/h 87% 0.00in /  0mm 515.0 W/m2
10:07 38.6 °F /  3.7 °C 35.1 °F /  1.7 °C 30.16in /  1021.2hPa SSW 7.0mph /  11.3km/h 7.0mph /  11.3km/h 87% 0.00in /  0mm 550.0 W/m2
10:12 38.7 °F /  3.7 °C 35.2 °F /  1.8 °C 30.16in /  1021.2hPa SW 5.8mph /  9.3km/h 5.8mph /  9.3km/h 87% 0.00in /  0mm 533.0 W/m2
10:17 38.9 °F /  3.8 °C 35.4 °F /  1.9 °C 30.16in /  1021.2hPa SSW 5.0mph /  8km/h 5.0mph /  8km/h 87% 0.00in /  0mm 392.0 W/m2
10:22 39.0 °F /  3.9 °C 35.5 °F /  1.9 °C 30.15in /  1020.9hPa SSW 5.0mph /  8km/h 5.0mph /  8km/h 87% 0.00in /  0mm 459.0 W/m2
10:27 39.0 °F /  3.9 °C 35.5 °F /  1.9 °C 30.15in /  1020.9hPa South 4.6mph /  7.4km/h 4.6mph /  7.4km/h 87% 0.00in /  0mm 494.0 W/m2
10:32 39.1 °F /  3.9 °C 35.6 °F /  2 °C 30.15in /  1020.9hPa SW 3.5mph /  5.6km/h 3.5mph /  5.6km/h 87% 0.00in /  0mm 345.0 W/m2
10:37 39.2 °F /  4 °C 35.7 °F /  2.1 °C 30.15in /  1020.9hPa SSW 3.5mph /  5.6km/h 3.5mph /  5.6km/h 87% 0.00in /  0mm 381.0 W/m2
10:42 39.4 °F /  4.1 °C 36.1 °F /  2.3 °C 30.14in /  1020.5hPa SSW 5.8mph /  9.3km/h 5.8mph /  9.3km/h 88% 0.00in /  0mm 663.0 W/m2
10:47 39.6 °F /  4.2 °C 36.0 °F /  2.2 °C 30.14in /  1020.5hPa South 5.0mph /  8km/h 5.0mph /  8km/h 87% 0.00in /  0mm 492.0 W/m2
10:52 39.8 °F /  4.3 °C 36.5 °F /  2.5 °C 30.14in /  1020.5hPa SSW 8.1mph /  13km/h 8.1mph /  13km/h 88% 0.00in /  0mm 740.0 W/m2
10:58 40.0 °F /  4.4 °C 36.7 °F /  2.6 °C 30.14in /  1020.5hPa SSW 8.1mph /  13km/h 8.1mph /  13km/h 88% 0.00in /  0mm 483.0 W/m2
11:03 40.3 °F /  4.6 °C 37.0 °F /  2.8 °C 30.14in /  1020.5hPa SSW 3.5mph /  5.6km/h 3.5mph /  5.6km/h 88% 0.00in /  0mm 786.0 W/m2
11:08 40.3 °F /  4.6 °C 36.7 °F /  2.6 °C 30.13in /  1020.2hPa SSW 5.8mph /  9.3km/h 5.8mph /  9.3km/h 87% 0.00in /  0mm 510.0 W/m2
11:13 40.2 °F /  4.6 °C 36.6 °F /  2.6 °C 30.13in /  1020.2hPa South 5.8mph /  9.3km/h 5.8mph /  9.3km/h 87% 0.00in /  0mm 703.0 W/m2
11:18 40.2 °F /  4.6 °C 36.6 °F /  2.6 °C 30.12in /  1019.9hPa SSE 3.5mph /  5.6km/h 3.5mph /  5.6km/h 87% 0.00in /  0mm 510.0 W/m2
11:23 39.9 °F /  4.4 °C 36.6 °F /  2.6 °C 30.12in /  1019.9hPa SW 8.1mph /  13km/h 8.1mph /  13km/h 88% 0.00in /  0mm 376.0 W/m2
11:28 39.7 °F /  4.3 °C 36.4 °F /  2.4 °C 30.12in /  1019.9hPa SSW 8.1mph /  13km/h 8.1mph /  13km/h 88% 0.00in /  0mm 295.0 W/m2
11:33 39.5 °F /  4.2 °C 36.5 °F /  2.5 °C 30.12in /  1019.9hPa SW 5.8mph /  9.3km/h 5.8mph /  9.3km/h 89% 0.00in /  0mm 264.0 W/m2
11:38 39.4 °F /  4.1 °C 36.4 °F /  2.4 °C 30.11in /  1019.5hPa SSW 5.8mph /  9.3km/h 5.8mph /  9.3km/h 89% 0.00in /  0mm 309.0 W/m2
11:43 39.3 °F /  4.1 °C 36.3 °F /  2.4 °C 30.11in /  1019.5hPa SSW 3.5mph /  5.6km/h 3.5mph /  5.6km/h 89% 0.00in /  0mm 366.0 W/m2
11:48 39.5 °F /  4.2 °C 36.8 °F /  2.7 °C 30.11in /  1019.5hPa SSW 8.1mph /  13km/h 8.1mph /  13km/h 90% 0.00in /  0mm 380.0 W/m2
11:53 39.6 °F /  4.2 °C 36.9 °F /  2.7 °C 30.10in /  1019.2hPa SW 10.4mph /  16.7km/h 10.4mph /  16.7km/h 90% 0.00in /  0mm 366.0 W/m2
11:58 39.7 °F /  4.3 °C 37.0 °F /  2.8 °C 30.10in /  1019.2hPa South 4.6mph /  7.4km/h 4.6mph /  7.4km/h 90% 0.00in /  0mm 380.0 W/m2
12:03 39.8 °F /  4.3 °C 37.1 °F /  2.8 °C 30.10in /  1019.2hPa SW 5.8mph /  9.3km/h 5.8mph /  9.3km/h 90% 0.00in /  0mm 360.0 W/m2
12:08 40.0 °F /  4.4 °C 37.3 °F /  2.9 °C 30.10in /  1019.2hPa SSW 5.8mph /  9.3km/h 5.8mph /  9.3km/h 90% 0.00in /  0mm 320.0 W/m2
12:13 40.1 °F /  4.5 °C 37.4 °F /  3 °C 30.10in /  1019.2hPa WSW 3.5mph /  5.6km/h 3.5mph /  5.6km/h 90% 0.00in /  0mm 325.0 W/m2
12:18 40.1 °F /  4.5 °C 37.4 °F /  3 °C 30.09in /  1018.8hPa SSW 4.6mph /  7.4km/h 4.6mph /  7.4km/h 90% 0.00in /  0mm 278.0 W/m2
12:23 40.0 °F /  4.4 °C 37.3 °F /  2.9 °C 30.09in /  1018.8hPa SSW 2.3mph /  3.7km/h 2.3mph /  3.7km/h 90% 0.00in /  0mm 306.0 W/m2
12:28 39.9 °F /  4.4 °C 37.2 °F /  2.9 °C 30.09in /  1018.8hPa SSW 4.6mph /  7.4km/h 4.6mph /  7.4km/h 90% 0.00in /  0mm 236.0 W/m2
12:33 39.6 °F /  4.2 °C 37.2 °F /  2.9 °C 30.09in /  1018.8hPa South 9.2mph /  14.8km/h 9.2mph /  14.8km/h 91% 0.00in /  0mm 211.0 W/m2
12:38 39.3 °F /  4.1 °C 36.9 °F /  2.7 °C 30.09in /  1018.8hPa SSW 2.3mph /  3.7km/h 2.3mph /  3.7km/h 91% 0.00in /  0mm 232.0 W/m2
12:43 39.3 °F /  4.1 °C 36.9 °F /  2.7 °C 30.08in /  1018.5hPa South 5.8mph /  9.3km/h 5.8mph /  9.3km/h 91% 0.00in /  0mm 251.0 W/m2
12:48 39.2 °F /  4 °C 37.1 °F /  2.8 °C 30.08in /  1018.5hPa Calm     92% 0.00in /  0mm 265.0 W/m2
12:53 39.2 °F /  4 °C 37.1 °F /  2.8 °C 30.08in /  1018.5hPa SSW 6.9mph /  11.1km/h 6.9mph /  11.1km/h 92% 0.00in /  0mm 257.0 W/m2
12:58 39.2 °F /  4 °C 37.1 °F /  2.8 °C 30.07in /  1018.2hPa SSW 5.8mph /  9.3km/h 5.8mph /  9.3km/h 92% 0.00in /  0mm 276.0 W/m2
13:03 39.2 °F /  4 °C 37.1 °F /  2.8 °C 30.07in /  1018.2hPa SSW 2.3mph /  3.7km/h 2.3mph /  3.7km/h 92% 0.00in /  0mm 276.0 W/m2
13:08 39.3 °F /  4.1 °C 37.2 °F /  2.9 °C 30.06in /  1017.8hPa SSW 2.3mph /  3.7km/h 2.3mph /  3.7km/h 92% 0.00in /  0mm 253.0 W/m2
13:13 39.3 °F /  4.1 °C 37.2 °F /  2.9 °C 30.06in /  1017.8hPa SW 6.9mph /  11.1km/h 6.9mph /  11.1km/h 92% 0.00in /  0mm 213.0 W/m2
13:18 39.3 °F /  4.1 °C 37.4 °F /  3 °C 30.06in /  1017.8hPa SSW 5.8mph /  9.3km/h 5.8mph /  9.3km/h 93% 0.00in /  0mm 204.0 W/m2
13:23 39.3 °F /  4.1 °C 37.4 °F /  3 °C 30.06in /  1017.8hPa SSW 3.5mph /  5.6km/h 3.5mph /  5.6km/h 93% 0.00in /  0mm 221.0 W/m2
13:28 39.4 °F /  4.1 °C 37.3 °F /  2.9 °C 30.05in /  1017.5hPa SSW 3.5mph /  5.6km/h 3.5mph /  5.6km/h 92% 0.00in /  0mm 253.0 W/m2
13:33 39.5 °F /  4.2 °C 37.4 °F /  3 °C 30.05in /  1017.5hPa SSW 4.6mph /  7.4km/h 4.6mph /  7.4km/h 92% 0.00in /  0mm 287.0 W/m2
13:38 39.5 °F /  4.2 °C 37.4 °F /  3 °C 30.04in /  1017.2hPa SSW 6.9mph /  11.1km/h 6.9mph /  11.1km/h 92% 0.00in /  0mm 313.0 W/m2
13:43 39.6 °F /  4.2 °C 37.5 °F /  3.1 °C 30.04in /  1017.2hPa South 4.0mph /  6.4km/h 4.0mph /  6.4km/h 92% 0.00in /  0mm 302.0 W/m2
13:48 39.5 °F /  4.2 °C 37.4 °F /  3 °C 30.04in /  1017.2hPa SW 3.5mph /  5.6km/h 3.5mph /  5.6km/h 92% 0.00in /  0mm 232.0 W/m2
13:53 39.5 °F /  4.2 °C 37.4 °F /  3 °C 30.03in /  1016.8hPa SW 2.3mph /  3.7km/h 2.3mph /  3.7km/h 92% 0.00in /  0mm 244.0 W/m2
13:58 39.5 °F /  4.2 °C 37.4 °F /  3 °C 30.03in /  1016.8hPa South 3.5mph /  5.6km/h 3.5mph /  5.6km/h 92% 0.00in /  0mm 243.0 W/m2
14:03 39.5 °F /  4.2 °C 37.6 °F /  3.1 °C 30.03in /  1016.8hPa SSW 3.5mph /  5.6km/h 3.5mph /  5.6km/h 93% 0.00in /  0mm 211.0 W/m2
14:08 39.5 °F /  4.2 °C 37.6 °F /  3.1 °C 30.03in /  1016.8hPa Calm   0.1mph /  0.2km/h 93% 0.00in /  0mm 227.0 W/m2
14:13 39.5 °F /  4.2 °C 37.6 °F /  3.1 °C 30.02in /  1016.5hPa Calm     93% 0.00in /  0mm 227.0 W/m2
14:18 39.5 °F /  4.2 °C 37.6 °F /  3.1 °C 30.02in /  1016.5hPa South 2.3mph /  3.7km/h 2.3mph /  3.7km/h 93% 0.00in /  0mm 230.0 W/m2
14:23 39.3 °F /  4.1 °C 37.2 °F /  2.9 °C 30.02in /  1016.5hPa Calm     92% 0.00in /  0mm 225.0 W/m2
14:28 39.2 °F /  4 °C 37.1 °F /  2.8 °C 30.01in /  1016.1hPa South 3.5mph /  5.6km/h 3.5mph /  5.6km/h 92% 0.00in /  0mm 200.0 W/m2
14:33 38.9 °F /  3.8 °C 37.0 °F /  2.8 °C 30.01in /  1016.1hPa South 4.6mph /  7.4km/h 4.6mph /  7.4km/h 93% 0.00in /  0mm 179.0 W/m2
14:38 38.7 °F /  3.7 °C 36.9 °F /  2.7 °C 30.01in /  1016.1hPa South 3.5mph /  5.6km/h 3.5mph /  5.6km/h 93% 0.00in /  0mm 183.0 W/m2
14:43 38.7 °F /  3.7 °C 36.9 °F /  2.7 °C 30.01in /  1016.1hPa South 3.5mph /  5.6km/h 3.5mph /  5.6km/h 93% 0.00in /  0mm 172.0 W/m2
14:48 38.6 °F /  3.7 °C 36.8 °F /  2.7 °C 30.01in /  1016.1hPa SSW 3.5mph /  5.6km/h 3.5mph /  5.6km/h 93% 0.00in /  0mm 165.0 W/m2
14:53 38.6 °F /  3.7 °C 36.8 °F /  2.7 °C 30.00in /  1015.8hPa South 4.0mph /  6.4km/h 4.0mph /  6.4km/h 93% 0.00in /  0mm 146.0 W/m2
14:58 38.7 °F /  3.7 °C 37.1 °F /  2.8 °C 30.00in /  1015.8hPa SSE 3.5mph /  5.6km/h 3.5mph /  5.6km/h 94% 0.00in /  0mm 134.0 W/m2
15:03 38.8 °F /  3.8 °C 37.2 °F /  2.9 °C 30.00in /  1015.8hPa South 3.5mph /  5.6km/h 3.5mph /  5.6km/h 94% 0.00in /  0mm 123.0 W/m2
15:08 38.7 °F /  3.7 °C 37.1 °F /  2.8 °C 30.00in /  1015.8hPa Calm     94% 0.00in /  0mm 105.0 W/m2
15:13 38.7 °F /  3.7 °C 37.1 °F /  2.8 °C 30.00in /  1015.8hPa South 1.0mph /  1.6km/h 1.0mph /  1.6km/h 94% 0.00in /  0mm 111.0 W/m2
15:18 38.8 °F /  3.8 °C 37.2 °F /  2.9 °C 30.00in /  1015.8hPa Calm     94% 0.00in /  0mm 114.0 W/m2
15:23 38.8 °F /  3.8 °C 37.2 °F /  2.9 °C 29.99in /  1015.5hPa South 3.5mph /  5.6km/h   94% 0.00in /  0mm 121.0 W/m2
15:28 38.7 °F /  3.7 °C 37.1 °F /  2.8 °C 29.99in /  1015.5hPa South 2.3mph /  3.7km/h 2.3mph /  3.7km/h 94% 0.00in /  0mm 114.0 W/m2
15:33 38.9 °F /  3.8 °C 37.3 °F /  2.9 °C 29.99in /  1015.5hPa SSW 3.5mph /  5.6km/h 3.5mph /  5.6km/h 94% 0.00in /  0mm 107.0 W/m2
15:38 39.1 °F /  3.9 °C 37.5 °F /  3.1 °C 29.98in /  1015.1hPa South 3.5mph /  5.6km/h 3.5mph /  5.6km/h 94% 0.00in /  0mm 109.0 W/m2
15:43 39.2 °F /  4 °C 37.6 °F /  3.1 °C 29.99in /  1015.5hPa SSW 3.5mph /  5.6km/h   94% 0.00in /  0mm 98.0 W/m2
15:48 39.3 °F /  4.1 °C 37.7 °F /  3.2 °C 29.99in /  1015.5hPa SSW 3.5mph /  5.6km/h 3.5mph /  5.6km/h 94% 0.00in /  0mm 84.0 W/m2
15:53 39.4 °F /  4.1 °C 38.1 °F /  3.4 °C 29.98in /  1015.1hPa SSW 4.6mph /  7.4km/h 4.6mph /  7.4km/h 95% 0.00in /  0mm 83.0 W/m2
15:58 39.4 °F /  4.1 °C 38.1 °F /  3.4 °C 29.98in /  1015.1hPa South 3.5mph /  5.6km/h 3.5mph /  5.6km/h 95% 0.00in /  0mm 79.0 W/m2
16:03 39.5 °F /  4.2 °C 38.2 °F /  3.4 °C 29.98in /  1015.1hPa SSW 3.5mph /  5.6km/h 3.5mph /  5.6km/h 95% 0.00in /  0mm 72.0 W/m2
16:08 39.5 °F /  4.2 °C 38.2 °F /  3.4 °C 29.98in /  1015.1hPa South 4.6mph /  7.4km/h 4.6mph /  7.4km/h 95% 0.00in /  0mm 74.0 W/m2
16:13 39.5 °F /  4.2 °C 38.2 °F /  3.4 °C 29.98in /  1015.1hPa SSW 3.5mph /  5.6km/h 3.5mph /  5.6km/h 95% 0.00in /  0mm 63.0 W/m2
16:18 39.3 °F /  4.1 °C 37.7 °F /  3.2 °C 29.98in /  1015.1hPa SSW 3.5mph /  5.6km/h 3.5mph /  5.6km/h 94% 0.00in /  0mm 42.0 W/m2
16:23 39.2 °F /  4 °C 37.9 °F /  3.3 °C 29.98in /  1015.1hPa Calm     95% 0.00in /  0mm 39.0 W/m2
16:28 39.3 °F /  4.1 °C 38.0 °F /  3.3 °C 29.98in /  1015.1hPa South 3.5mph /  5.6km/h   95% 0.00in /  0mm 28.0 W/m2
16:33 39.1 °F /  3.9 °C 37.8 °F /  3.2 °C 29.97in /  1014.8hPa Calm   0.3mph /  0.5km/h 95% 0.00in /  0mm 25.0 W/m2
16:38 38.8 °F /  3.8 °C 37.5 °F /  3.1 °C 29.97in /  1014.8hPa Calm     95% 0.00in /  0mm 23.0 W/m2
16:43 38.6 °F /  3.7 °C 37.3 °F /  2.9 °C 29.97in /  1014.8hPa Calm     95% 0.00in /  0mm 19.0 W/m2
16:48 38.5 °F /  3.6 °C 37.2 °F /  2.9 °C 29.97in /  1014.8hPa SSE 3.5mph /  5.6km/h   95% 0.00in /  0mm 18.0 W/m2
16:53 38.1 °F /  3.4 °C 36.5 °F /  2.5 °C 29.96in /  1014.4hPa Calm     94% 0.00in /  0mm 16.0 W/m2
16:58 37.8 °F /  3.2 °C 36.5 °F /  2.5 °C 29.96in /  1014.4hPa Calm     95% 0.00in /  0mm 12.0 W/m2
17:03 37.5 °F /  3.1 °C 36.2 °F /  2.3 °C 29.96in /  1014.4hPa Calm     95% 0.00in /  0mm 7.0 W/m2
17:08 37.3 °F /  2.9 °C 36.0 °F /  2.2 °C 29.96in /  1014.4hPa Calm     95% 0.00in /  0mm 5.0 W/m2
17:13 37.1 °F /  2.8 °C 35.8 °F /  2.1 °C 29.96in /  1014.4hPa Calm     95% 0.00in /  0mm 0.0 W/m2
17:23 36.6 °F /  2.6 °C 35.3 °F /  1.8 °C 29.95in /  1014.1hPa Calm     95% 0.00in /  0mm 0.0 W/m2
17:28 36.4 °F /  2.4 °C 35.1 °F /  1.7 °C 29.94in /  1013.8hPa Calm     95% 0.00in /  0mm 0.0 W/m2
17:33 36.6 °F /  2.6 °C 35.3 °F /  1.8 °C 29.94in /  1013.8hPa Calm     95% 0.00in /  0mm 0.0 W/m2
17:38 36.8 °F /  2.7 °C 35.5 °F /  1.9 °C 29.94in /  1013.8hPa Calm     95% 0.00in /  0mm 0.0 W/m2
17:43 36.9 °F /  2.7 °C 35.6 °F /  2 °C 29.94in /  1013.8hPa Calm     95% 0.00in /  0mm 0.0 W/m2
17:48 37.0 °F /  2.8 °C 35.7 °F /  2.1 °C 29.94in /  1013.8hPa Calm     95% 0.00in /  0mm 0.0 W/m2
17:53 37.0 °F /  2.8 °C 35.7 °F /  2.1 °C 29.94in /  1013.8hPa Calm     95% 0.00in /  0mm 0.0 W/m2
17:59 37.0 °F /  2.8 °C 35.7 °F /  2.1 °C 29.94in /  1013.8hPa Calm     95% 0.00in /  0mm 0.0 W/m2
18:04 37.0 °F /  2.8 °C 35.7 °F /  2.1 °C 29.94in /  1013.8hPa Calm     95% 0.00in /  0mm 0.0 W/m2
18:09 37.1 °F /  2.8 °C 35.8 °F /  2.1 °C 29.94in /  1013.8hPa Calm     95% 0.00in /  0mm 0.0 W/m2
18:14 37.0 °F /  2.8 °C 35.7 °F /  2.1 °C 29.94in /  1013.8hPa South 1.2mph /  1.9km/h 1.2mph /  1.9km/h 95% 0.00in /  0mm 0.0 W/m2
18:19 37.0 °F /  2.8 °C 35.7 °F /  2.1 °C 29.94in /  1013.8hPa Calm     95% 0.00in /  0mm 0.0 W/m2
18:24 36.9 °F /  2.7 °C 35.6 °F /  2 °C 29.94in /  1013.8hPa Calm     95% 0.00in /  0mm 0.0 W/m2
18:29 36.8 °F /  2.7 °C 35.5 °F /  1.9 °C 29.93in /  1013.4hPa Calm     95% 0.00in /  0mm 0.0 W/m2
18:34 36.7 °F /  2.6 °C 35.4 °F /  1.9 °C 29.93in /  1013.4hPa Calm     95% 0.00in /  0mm 0.0 W/m2
18:39 36.8 °F /  2.7 °C 35.5 °F /  1.9 °C 29.93in /  1013.4hPa Calm     95% 0.00in /  0mm 0.0 W/m2
18:44 37.0 °F /  2.8 °C 35.7 °F /  2.1 °C 29.93in /  1013.4hPa Calm     95% 0.00in /  0mm 0.0 W/m2
18:49 37.1 °F /  2.8 °C 35.8 °F /  2.1 °C 29.93in /  1013.4hPa South 3.5mph /  5.6km/h 3.5mph /  5.6km/h 95% 0.00in /  0mm 0.0 W/m2
18:54 37.5 °F /  3.1 °C 36.2 °F /  2.3 °C 29.93in /  1013.4hPa Calm     95% 0.00in /  0mm 0.0 W/m2
18:59 38.4 °F /  3.6 °C 37.1 °F /  2.8 °C 29.93in /  1013.4hPa Calm     95% 0.00in /  0mm 0.0 W/m2
19:09 40.1 °F /  4.5 °C 39.1 °F /  3.9 °C 29.93in /  1013.4hPa Calm     96% 0.00in /  0mm 0.0 W/m2
19:14 40.5 °F /  4.7 °C 39.2 °F /  4 °C 29.93in /  1013.4hPa South 2.3mph /  3.7km/h 2.3mph /  3.7km/h 95% 0.00in /  0mm 0.0 W/m2
19:19 40.7 °F /  4.8 °C 39.6 °F /  4.2 °C 29.92in /  1013.1hPa SSW 2.0mph /  3.2km/h 2.0mph /  3.2km/h 96% 0.00in /  0mm 0.0 W/m2
19:24 40.9 °F /  4.9 °C 39.8 °F /  4.3 °C 29.92in /  1013.1hPa SSW 10.4mph /  16.7km/h 10.4mph /  16.7km/h 96% 0.00in /  0mm 0.0 W/m2
19:29 41.1 °F /  5.1 °C 39.8 °F /  4.3 °C 29.92in /  1013.1hPa South 4.6mph /  7.4km/h 4.6mph /  7.4km/h 95% 0.00in /  0mm 0.0 W/m2
19:34 41.1 °F /  5.1 °C 39.8 °F /  4.3 °C 29.92in /  1013.1hPa SSW 5.8mph /  9.3km/h 5.8mph /  9.3km/h 95% 0.00in /  0mm 0.0 W/m2
19:39 41.0 °F /  5 °C 39.7 °F /  4.3 °C 29.92in /  1013.1hPa South 4.6mph /  7.4km/h 4.6mph /  7.4km/h 95% 0.00in /  0mm 0.0 W/m2
19:44 40.8 °F /  4.9 °C 39.7 °F /  4.3 °C 29.92in /  1013.1hPa SSW 2.3mph /  3.7km/h 2.3mph /  3.7km/h 96% 0.00in /  0mm 0.0 W/m2
19:49 40.6 °F /  4.8 °C 39.3 °F /  4.1 °C 29.92in /  1013.1hPa Calm     95% 0.00in /  0mm 0.0 W/m2
19:54 40.4 °F /  4.7 °C 39.1 °F /  3.9 °C 29.92in /  1013.1hPa South 3.5mph /  5.6km/h 3.5mph /  5.6km/h 95% 0.00in /  0mm 0.0 W/m2
19:59 40.5 °F /  4.7 °C 39.2 °F /  4 °C 29.92in /  1013.1hPa SSW 4.0mph /  6.4km/h 4.0mph /  6.4km/h 95% 0.00in /  0mm 0.0 W/m2
20:09 40.6 °F /  4.8 °C 39.3 °F /  4.1 °C 29.91in /  1012.8hPa SSW 5.8mph /  9.3km/h 5.8mph /  9.3km/h 95% 0.00in /  0mm 0.0 W/m2
20:14 40.5 °F /  4.7 °C 39.2 °F /  4 °C 29.91in /  1012.8hPa SSW 5.8mph /  9.3km/h 5.8mph /  9.3km/h 95% 0.00in /  0mm 0.0 W/m2
20:19 40.4 °F /  4.7 °C 39.1 °F /  3.9 °C 29.91in /  1012.8hPa SW 4.6mph /  7.4km/h 4.6mph /  7.4km/h 95% 0.00in /  0mm 0.0 W/m2
20:24 40.3 °F /  4.6 °C 39.0 °F /  3.9 °C 29.91in /  1012.8hPa SSW 3.0mph /  4.8km/h 3.0mph /  4.8km/h 95% 0.00in /  0mm 0.0 W/m2
20:29 40.1 °F /  4.5 °C 38.8 °F /  3.8 °C 29.90in /  1012.4hPa Calm     95% 0.00in /  0mm 0.0 W/m2
20:34 39.8 °F /  4.3 °C 38.5 °F /  3.6 °C 29.90in /  1012.4hPa Calm     95% 0.00in /  0mm 0.0 W/m2
20:39 39.5 °F /  4.2 °C 38.2 °F /  3.4 °C 29.90in /  1012.4hPa Calm     95% 0.00in /  0mm 0.0 W/m2
20:44 39.4 °F /  4.1 °C 38.1 °F /  3.4 °C 29.90in /  1012.4hPa Calm     95% 0.00in /  0mm 0.0 W/m2
20:50 39.6 °F /  4.2 °C 38.3 °F /  3.5 °C 29.89in /  1012.1hPa SSW 2.3mph /  3.7km/h   95% 0.00in /  0mm 0.0 W/m2
20:55 39.8 °F /  4.3 °C 38.5 °F /  3.6 °C 29.89in /  1012.1hPa Calm     95% 0.00in /  0mm 0.0 W/m2
21:00 40.0 °F /  4.4 °C 39.0 °F /  3.9 °C 29.89in /  1012.1hPa Calm     96% 0.00in /  0mm 0.0 W/m2
21:05 40.1 °F /  4.5 °C 39.1 °F /  3.9 °C 29.89in /  1012.1hPa Calm     96% 0.00in /  0mm 0.0 W/m2
21:10 39.7 °F /  4.3 °C 38.4 °F /  3.6 °C 29.89in /  1012.1hPa Calm     95% 0.00in /  0mm 0.0 W/m2
21:15 39.2 °F /  4 °C 37.9 °F /  3.3 °C 29.89in /  1012.1hPa Calm     95% 0.00in /  0mm 0.0 W/m2
21:20 39.0 °F /  3.9 °C 37.7 °F /  3.2 °C 29.89in /  1012.1hPa Calm     95% 0.00in /  0mm 0.0 W/m2
21:25 39.9 °F /  4.4 °C 38.6 °F /  3.7 °C 29.89in /  1012.1hPa SSW 2.3mph /  3.7km/h 2.3mph /  3.7km/h 95% 0.00in /  0mm 0.0 W/m2
21:30 41.5 °F /  5.3 °C 40.4 °F /  4.7 °C 29.89in /  1012.1hPa SSW 3.5mph /  5.6km/h 3.5mph /  5.6km/h 96% 0.00in /  0mm 0.0 W/m2
21:35 42.0 °F /  5.6 °C 40.9 °F /  4.9 °C 29.89in /  1012.1hPa Calm     96% 0.00in /  0mm 0.0 W/m2
21:40 42.1 °F /  5.6 °C 41.0 °F /  5 °C 29.88in /  1011.7hPa Calm     96% 0.00in /  0mm 0.0 W/m2
21:45 42.1 °F /  5.6 °C 41.0 °F /  5 °C 29.89in /  1012.1hPa SW 3.5mph /  5.6km/h 3.5mph /  5.6km/h 96% 0.00in /  0mm 0.0 W/m2
21:50 42.2 °F /  5.7 °C 41.1 °F /  5.1 °C 29.89in /  1012.1hPa SSW 2.3mph /  3.7km/h 2.3mph /  3.7km/h 96% 0.00in /  0mm 0.0 W/m2
21:55 42.2 °F /  5.7 °C 41.1 °F /  5.1 °C 29.89in /  1012.1hPa Calm     96% 0.00in /  0mm 0.0 W/m2
22:00 42.2 °F /  5.7 °C 41.1 °F /  5.1 °C 29.89in /  1012.1hPa Calm     96% 0.00in /  0mm 0.0 W/m2
22:05 42.0 °F /  5.6 °C 40.9 °F /  4.9 °C 29.89in /  1012.1hPa Calm     96% 0.00in /  0mm 0.0 W/m2
22:10 41.9 °F /  5.5 °C 40.8 °F /  4.9 °C 29.89in /  1012.1hPa Calm     96% 0.00in /  0mm 0.0 W/m2
22:15 41.7 °F /  5.4 °C 40.4 °F /  4.7 °C 29.89in /  1012.1hPa Calm     95% 0.00in /  0mm 0.0 W/m2
22:20 41.5 °F /  5.3 °C 40.2 °F /  4.6 °C 29.88in /  1011.7hPa South 2.3mph /  3.7km/h 2.3mph /  3.7km/h 95% 0.00in /  0mm 0.0 W/m2
22:25 41.0 °F /  5 °C 39.7 °F /  4.3 °C 29.88in /  1011.7hPa South 4.6mph /  7.4km/h 4.6mph /  7.4km/h 95% 0.00in /  0mm 0.0 W/m2
22:30 40.8 °F /  4.9 °C 39.5 °F /  4.2 °C 29.88in /  1011.7hPa SSW 3.5mph /  5.6km/h 3.5mph /  5.6km/h 95% 0.00in /  0mm 0.0 W/m2
22:35 40.9 °F /  4.9 °C 39.6 °F /  4.2 °C 29.88in /  1011.7hPa Calm     95% 0.00in /  0mm 0.0 W/m2
22:40 41.1 °F /  5.1 °C 39.8 °F /  4.3 °C 29.88in /  1011.7hPa Calm     95% 0.00in /  0mm 0.0 W/m2
22:45 41.3 °F /  5.2 °C 40.2 °F /  4.6 °C 29.88in /  1011.7hPa SW 3.5mph /  5.6km/h 3.5mph /  5.6km/h 96% 0.00in /  0mm 0.0 W/m2
22:50 41.7 °F /  5.4 °C 40.4 °F /  4.7 °C 29.88in /  1011.7hPa SSW 5.8mph /  9.3km/h 5.8mph /  9.3km/h 95% 0.00in /  0mm 0.0 W/m2
22:55 41.9 °F /  5.5 °C 40.8 °F /  4.9 °C 29.88in /  1011.7hPa South 4.6mph /  7.4km/h 4.6mph /  7.4km/h 96% 0.00in /  0mm 0.0 W/m2
23:00 42.2 °F /  5.7 °C 41.1 °F /  5.1 °C 29.88in /  1011.7hPa SSW 5.8mph /  9.3km/h 5.8mph /  9.3km/h 96% 0.00in /  0mm 0.0 W/m2
23:05 42.5 °F /  5.8 °C 41.4 °F /  5.2 °C 29.87in /  1011.4hPa SSW 6.9mph /  11.1km/h 6.9mph /  11.1km/h 96% 0.00in /  0mm 0.0 W/m2
23:10 42.7 °F /  5.9 °C 41.6 °F /  5.3 °C 29.87in /  1011.4hPa SSW 6.9mph /  11.1km/h 6.9mph /  11.1km/h 96% 0.00in /  0mm 0.0 W/m2
23:15 42.9 °F /  6.1 °C 41.8 °F /  5.4 °C 29.87in /  1011.4hPa SW 7.0mph /  11.3km/h 7.0mph /  11.3km/h 96% 0.00in /  0mm 0.0 W/m2
23:20 43.3 °F /  6.3 °C 42.2 °F /  5.7 °C 29.87in /  1011.4hPa SSW 6.9mph /  11.1km/h 6.9mph /  11.1km/h 96% 0.00in /  0mm 0.0 W/m2
23:25 43.5 °F /  6.4 °C 42.4 °F /  5.8 °C 29.87in /  1011.4hPa South 8.1mph /  13km/h 8.1mph /  13km/h 96% 0.00in /  0mm 0.0 W/m2
23:30 43.7 °F /  6.5 °C 42.6 °F /  5.9 °C 29.87in /  1011.4hPa SSW 5.8mph /  9.3km/h 5.8mph /  9.3km/h 96% 0.00in /  0mm 0.0 W/m2
23:35 44.0 °F /  6.7 °C 42.9 °F /  6.1 °C 29.88in /  1011.7hPa SW 4.6mph /  7.4km/h 4.6mph /  7.4km/h 96% 0.00in /  0mm 0.0 W/m2
23:40 43.9 °F /  6.6 °C 42.8 °F /  6 °C 29.88in /  1011.7hPa SSW 6.9mph /  11.1km/h 6.9mph /  11.1km/h 96% 0.00in /  0mm 0.0 W/m2
23:45 43.6 °F /  6.4 °C 42.5 °F /  5.8 °C 29.88in /  1011.7hPa South 5.0mph /  8km/h 5.0mph /  8km/h 96% 0.00in /  0mm 0.0 W/m2
23:50 43.4 °F /  6.3 °C 42.3 °F /  5.7 °C 29.88in /  1011.7hPa WSW 10.4mph /  16.7km/h 10.4mph /  16.7km/h 96% 0.00in /  0mm 0.0 W/m2
23:55 43.2 °F /  6.2 °C 42.1 °F /  5.6 °C 29.88in /  1011.7hPa WSW 5.8mph /  9.3km/h 5.8mph /  9.3km/h 96% 0.00in /  0mm 0.0 W/m2
Bourbonnais, Illinois, USA
Compliments of Weather Underground - 4 mb